3TA1 weather

CLOSED Diamond K Ranch Airport
Comfort, Texas, United States

Public forecast

Using degrees Fahrenheit for public forecast. Weather courtesy of forecast.io.

Closest aviation weather report (METAR) to Diamond K Ranch Airport

Closest report is Gillespie County Airport, 16.6 nm (30.7 km) NW. Retrieved 2019/11/13 18:35 UTC (19 minutes ago):

KT82 131835Z AUTO 20006KT 10SM -DZ OVC060 02/M04 A3018 RMK AO2 T00221042

Closest aviation forecast (TAF) to Diamond K Ranch Airport

Closest forecast is San Antonio International Airport, 32.4 nm (60.1 km) SSE. Retrieved 2019/11/13 18:36 UTC (18 minutes ago):

TAF KSAT 131734Z 1318/1424 21007KT P6SM OVC060 FM140000 17003KT P6SM OVC025 FM140600 VRB03KT P6SM VCSH OVC015 FM141200 01005KT 5SM -SHRA SCT005 OVC008 FM141700 36010KT 6SM -SHRA OVC012